createdAt,value
2019-03-26T00:00:10.302Z,0.18
2019-03-26T00:02:36.709Z,0.18
2019-03-26T00:05:03.115Z,0.15
2019-03-26T00:07:28.957Z,0.12
2019-03-26T00:09:55.019Z,0.08
2019-03-26T00:12:20.984Z,0.03
2019-03-26T00:14:46.862Z,0.02
2019-03-26T00:17:12.840Z,0.02
2019-03-26T00:19:38.729Z,0.02
2019-03-26T00:22:04.626Z,0.01
2019-03-26T00:24:30.622Z,-0.01
2019-03-26T00:26:56.480Z,-0.01
2019-03-26T00:29:22.331Z,-0.04
2019-03-26T00:31:48.399Z,-0.07
2019-03-26T00:34:19.613Z,-0.11
2019-03-26T00:36:42.030Z,-0.15
2019-03-26T00:39:08.077Z,-0.19
2019-03-26T00:41:33.983Z,-0.22
2019-03-26T00:43:59.877Z,-0.26
2019-03-26T00:46:26.019Z,-0.31
2019-03-26T00:48:51.918Z,-0.38
2019-03-26T00:51:17.771Z,-0.42
2019-03-26T00:53:43.838Z,-0.48
2019-03-26T00:56:10.795Z,-0.53
2019-03-26T00:58:36.678Z,-0.57
2019-03-26T01:01:02.804Z,-0.59
2019-03-26T01:03:28.711Z,-0.59
2019-03-26T01:05:54.595Z,-0.60
2019-03-26T01:08:20.640Z,-0.60
2019-03-26T01:10:46.956Z,-0.59
2019-03-26T01:13:12.959Z,-0.61
2019-03-26T01:15:39.055Z,-0.63
2019-03-26T01:18:05.100Z,-0.65
2019-03-26T01:20:30.935Z,-0.67
2019-03-26T01:22:56.956Z,-0.68
2019-03-26T01:25:22.902Z,-0.68
2019-03-26T01:27:48.719Z,-0.71
2019-03-26T01:30:14.846Z,-0.73
2019-03-26T01:32:40.864Z,-0.75
2019-03-26T01:35:06.843Z,-0.75
2019-03-26T01:37:32.921Z,-0.75
2019-03-26T01:39:59.046Z,-0.72
2019-03-26T01:42:25.999Z,-0.75
2019-03-26T01:44:52.041Z,-0.76
2019-03-26T01:47:17.990Z,-0.76
2019-03-26T01:49:43.854Z,-0.75
2019-03-26T01:52:09.970Z,-0.77
2019-03-26T01:54:35.882Z,-0.81
2019-03-26T01:57:01.843Z,-0.85
2019-03-26T01:59:28.167Z,-0.87
2019-03-26T02:01:54.051Z,-0.85
2019-03-26T02:04:20.200Z,-0.88
2019-03-26T02:06:46.382Z,-0.92
2019-03-26T02:09:12.251Z,-0.96
2019-03-26T02:11:38.110Z,-1.00
2019-03-26T02:14:04.243Z,-1.00
2019-03-26T02:16:30.249Z,-1.01
2019-03-26T02:18:56.158Z,-1.03
2019-03-26T02:21:22.199Z,-1.04
2019-03-26T02:23:48.087Z,-1.08
2019-03-26T02:26:14.058Z,-1.08
2019-03-26T02:28:40.103Z,-1.08
2019-03-26T02:31:06.088Z,-1.10
2019-03-26T02:33:31.937Z,-1.10
2019-03-26T02:35:58.164Z,-1.12
2019-03-26T02:38:24.080Z,-1.13
2019-03-26T02:40:49.929Z,-1.12
2019-03-26T02:43:15.922Z,-1.09
2019-03-26T02:45:43.721Z,-1.10
2019-03-26T02:48:09.627Z,-1.10
2019-03-26T02:50:35.586Z,-1.10
2019-03-26T02:53:01.481Z,-1.16
2019-03-26T02:55:27.381Z,-1.21
2019-03-26T02:57:53.495Z,-1.26
2019-03-26T03:00:19.382Z,-1.28
2019-03-26T03:02:45.223Z,-1.27
2019-03-26T03:05:11.374Z,-1.30
2019-03-26T03:07:37.478Z,-1.36
2019-03-26T03:10:04.444Z,-1.37
2019-03-26T03:12:30.485Z,-1.36
2019-03-26T03:14:56.471Z,-1.33
2019-03-26T03:17:22.534Z,-1.31
2019-03-26T03:19:48.659Z,-1.31
2019-03-26T03:22:14.610Z,-1.30
2019-03-26T03:24:40.585Z,-1.30
2019-03-26T03:27:06.658Z,-1.31
2019-03-26T03:29:32.528Z,-1.31
2019-03-26T03:31:58.402Z,-1.30
2019-03-26T03:34:24.740Z,-1.33
2019-03-26T03:36:50.646Z,-1.34
2019-03-26T03:39:16.515Z,-1.35
2019-03-26T03:41:42.616Z,-1.35
2019-03-26T03:44:08.566Z,-1.32
2019-03-26T03:46:34.429Z,-1.31
2019-03-26T03:49:00.590Z,-1.30
2019-03-26T03:51:26.902Z,-1.28
2019-03-26T03:53:53.063Z,-1.27
2019-03-26T03:56:20.312Z,-1.28
2019-03-26T03:58:46.581Z,-1.28
2019-03-26T04:01:12.472Z,-1.26
2019-03-26T04:03:38.430Z,-1.24
2019-03-26T04:06:09.635Z,-1.22
2019-03-26T04:08:32.174Z,-1.22
2019-03-26T04:10:58.348Z,-1.22
2019-03-26T04:13:24.243Z,-1.22
2019-03-26T04:15:50.110Z,-1.20
2019-03-26T04:18:16.140Z,-1.21
2019-03-26T04:20:43.942Z,-1.20
2019-03-26T04:23:09.963Z,-1.20
2019-03-26T04:25:36.013Z,-1.21
2019-03-26T04:28:01.960Z,-1.20
2019-03-26T04:30:29.759Z,-1.20
2019-03-26T04:32:55.873Z,-1.19
2019-03-26T04:35:21.737Z,-1.20
2019-03-26T04:37:47.619Z,-1.19
2019-03-26T04:40:13.659Z,-1.19
2019-03-26T04:42:39.527Z,-1.19
2019-03-26T04:45:05.524Z,-1.20
2019-03-26T04:47:31.562Z,-1.21
2019-03-26T04:49:57.411Z,-1.22
2019-03-26T04:52:23.431Z,-1.22
2019-03-26T04:54:49.461Z,-1.21
2019-03-26T04:57:15.323Z,-1.20
2019-03-26T04:59:41.217Z,-1.19
2019-03-26T05:02:07.191Z,-1.20
2019-03-26T05:04:33.077Z,-1.20
2019-03-26T05:06:58.955Z,-1.21
2019-03-26T05:09:24.920Z,-1.21
2019-03-26T05:11:50.799Z,-1.20
2019-03-26T05:14:16.687Z,-1.20
2019-03-26T05:16:42.693Z,-1.19
2019-03-26T05:19:08.661Z,-1.18
2019-03-26T05:21:34.622Z,-1.17
2019-03-26T05:24:00.728Z,-1.17
2019-03-26T05:26:26.580Z,-1.15
2019-03-26T05:28:52.444Z,-1.14
2019-03-26T05:31:18.455Z,-1.14
2019-03-26T05:33:44.342Z,-1.12
2019-03-26T05:36:10.224Z,-1.12
2019-03-26T05:38:36.187Z,-1.11
2019-03-26T05:41:02.141Z,-1.11
2019-03-26T05:43:28.019Z,-1.12
2019-03-26T05:45:54.005Z,-1.13
2019-03-26T05:48:19.859Z,-1.14
2019-03-26T05:50:45.749Z,-1.13
2019-03-26T05:53:11.791Z,-1.12
2019-03-26T05:55:37.861Z,-1.11
2019-03-26T05:58:03.839Z,-1.10
2019-03-26T06:00:29.798Z,-1.10
2019-03-26T06:02:55.665Z,-1.10
2019-03-26T06:05:21.591Z,-1.10
2019-03-26T06:07:47.748Z,-1.09
2019-03-26T06:10:13.698Z,-1.09
2019-03-26T06:12:39.581Z,-1.09
2019-03-26T06:15:06.958Z,-1.10
2019-03-26T06:17:32.858Z,-1.08
2019-03-26T06:19:58.739Z,-1.07
2019-03-26T06:22:24.801Z,-1.04
2019-03-26T06:24:50.649Z,-1.04
2019-03-26T06:27:16.660Z,-1.02
2019-03-26T06:29:42.604Z,-1.00
2019-03-26T06:32:08.470Z,-0.98
2019-03-26T06:34:34.329Z,-0.97
2019-03-26T06:37:00.544Z,-0.94
2019-03-26T06:39:26.517Z,-0.93
2019-03-26T06:41:52.596Z,-0.90
2019-03-26T06:44:18.636Z,-0.88
2019-03-26T06:46:44.782Z,-0.85
2019-03-26T06:49:10.634Z,-0.82
2019-03-26T06:51:36.672Z,-0.78
2019-03-26T06:54:02.649Z,-0.74
2019-03-26T06:56:28.534Z,-0.70
2019-03-26T06:58:54.609Z,-0.69
2019-03-26T07:01:20.576Z,-0.65
2019-03-26T07:03:46.436Z,-0.64
2019-03-26T07:06:12.430Z,-0.60
2019-03-26T07:08:39.606Z,-0.57
2019-03-26T07:11:05.546Z,-0.56
2019-03-26T07:13:31.700Z,-0.53
2019-03-26T07:15:57.674Z,-0.50
2019-03-26T07:18:23.527Z,-0.47
2019-03-26T07:20:49.546Z,-0.46
2019-03-26T07:23:15.586Z,-0.43
2019-03-26T07:25:41.562Z,-0.41
2019-03-26T07:28:07.769Z,-0.38
2019-03-26T07:30:34.872Z,-0.35
2019-03-26T07:33:00.747Z,-0.32
2019-03-26T07:35:26.873Z,-0.28
2019-03-26T07:37:52.735Z,-0.24
2019-03-26T07:40:18.606Z,-0.20
2019-03-26T07:42:44.583Z,-0.17
2019-03-26T07:45:10.527Z,-0.14
2019-03-26T07:47:36.499Z,-0.10
2019-03-26T07:50:03.819Z,-0.06
2019-03-26T07:52:29.671Z,-0.02
2019-03-26T07:54:57.052Z,0.03
2019-03-26T07:57:23.099Z,0.08
2019-03-26T07:59:48.951Z,0.11
2019-03-26T08:02:14.890Z,0.15
2019-03-26T08:04:40.978Z,0.19
2019-03-26T08:07:06.937Z,0.24
2019-03-26T08:09:32.992Z,0.26
2019-03-26T08:11:58.991Z,0.31
2019-03-26T08:14:24.866Z,0.35
2019-03-26T08:16:51.869Z,0.40
2019-03-26T08:19:19.433Z,0.43
2019-03-26T08:21:45.281Z,0.47
2019-03-26T08:24:11.215Z,0.51
2019-03-26T08:26:37.160Z,0.56
2019-03-26T08:29:03.137Z,0.63
2019-03-26T08:31:28.999Z,0.72
2019-03-26T08:33:55.051Z,0.78
2019-03-26T08:36:20.954Z,0.84
2019-03-26T08:38:46.824Z,0.92
2019-03-26T08:41:12.996Z,0.98
2019-03-26T08:43:41.007Z,1.04
2019-03-26T08:46:06.575Z,1.08
2019-03-26T08:48:32.627Z,1.14
2019-03-26T08:50:58.507Z,1.18
2019-03-26T08:53:24.336Z,1.23
2019-03-26T08:55:50.334Z,1.30
2019-03-26T08:58:16.207Z,1.35
2019-03-26T09:00:42.054Z,1.40
2019-03-26T09:03:08.020Z,1.45
2019-03-26T09:05:33.991Z,1.50
2019-03-26T09:07:59.963Z,1.57
2019-03-26T09:10:26.101Z,1.63
2019-03-26T09:12:51.978Z,1.67
2019-03-26T09:15:17.918Z,1.73
2019-03-26T09:17:44.646Z,1.78
2019-03-26T09:20:10.917Z,1.86
2019-03-26T09:22:36.759Z,1.93
2019-03-26T09:25:04.062Z,2.03
2019-03-26T09:27:30.064Z,2.12
2019-03-26T09:29:55.944Z,2.21
2019-03-26T09:32:22.037Z,2.31
2019-03-26T09:34:47.915Z,2.40
2019-03-26T09:37:13.785Z,2.47
2019-03-26T09:39:39.857Z,2.56
2019-03-26T09:42:05.689Z,2.64
2019-03-26T09:44:31.579Z,2.70
2019-03-26T09:46:57.685Z,2.79
2019-03-26T09:49:23.675Z,2.88
2019-03-26T09:51:49.515Z,3.00
2019-03-26T09:54:15.552Z,3.11
2019-03-26T09:56:41.383Z,3.22
2019-03-26T09:59:07.240Z,3.32
2019-03-26T10:01:33.295Z,3.41
2019-03-26T10:03:59.329Z,3.48
2019-03-26T10:06:25.169Z,3.54
2019-03-26T10:08:52.558Z,3.64
2019-03-26T10:11:18.920Z,3.79
2019-03-26T10:13:44.748Z,3.97
2019-03-26T10:16:12.040Z,4.16
2019-03-26T10:18:37.899Z,4.32
2019-03-26T10:21:03.768Z,4.51
2019-03-26T10:23:29.741Z,4.65
2019-03-26T10:25:55.689Z,4.75
2019-03-26T10:28:21.601Z,4.83
2019-03-26T10:30:47.662Z,4.93
2019-03-26T10:33:13.758Z,5.04
2019-03-26T10:35:39.727Z,4.92
2019-03-26T10:38:05.959Z,5.19
2019-03-26T10:40:32.727Z,5.22
2019-03-26T10:42:59.000Z,5.27
2019-03-26T10:45:25.052Z,5.31
2019-03-26T10:47:50.913Z,5.38
2019-03-26T10:50:16.778Z,5.48
2019-03-26T10:52:42.753Z,5.60
2019-03-26T10:55:08.618Z,5.71
2019-03-26T10:57:34.602Z,5.84
2019-03-26T11:00:00.770Z,5.95
2019-03-26T11:02:26.669Z,6.05
2019-03-26T11:04:52.638Z,6.09
2019-03-26T11:07:18.824Z,6.17
2019-03-26T11:09:44.692Z,6.29
2019-03-26T11:12:10.526Z,6.39
2019-03-26T11:14:36.617Z,6.46
2019-03-26T11:17:02.609Z,6.18
2019-03-26T11:19:28.475Z,6.66
2019-03-26T11:21:54.463Z,6.77
2019-03-26T11:24:20.335Z,6.87
2019-03-26T11:26:46.282Z,6.94
2019-03-26T11:29:12.290Z,7.03
2019-03-26T11:31:38.247Z,7.14
2019-03-26T11:34:04.217Z,7.30
2019-03-26T11:36:30.426Z,7.33
2019-03-26T11:38:56.284Z,7.63
2019-03-26T11:41:22.229Z,7.78
2019-03-26T11:43:48.219Z,7.88
2019-03-26T11:46:14.182Z,7.97
2019-03-26T11:48:40.060Z,8.09
2019-03-26T11:51:06.092Z,8.16
2019-03-26T11:53:31.954Z,8.18
2019-03-26T11:55:57.940Z,8.25
2019-03-26T11:58:30.504Z,8.39
2019-03-26T12:00:51.787Z,8.50
2019-03-26T12:03:17.807Z,8.58
2019-03-26T12:05:43.830Z,8.66
2019-03-26T12:08:09.720Z,8.75
2019-03-26T12:10:35.583Z,8.83
2019-03-26T12:13:01.640Z,8.95
2019-03-26T12:15:27.600Z,9.02
2019-03-26T12:17:53.493Z,9.16
2019-03-26T12:20:19.930Z,9.32
2019-03-26T12:22:47.697Z,9.43
2019-03-26T12:25:13.755Z,9.52
2019-03-26T12:27:39.805Z,9.63
2019-03-26T12:30:07.162Z,9.74
2019-03-26T12:32:33.093Z,9.80
2019-03-26T12:34:59.348Z,9.88
2019-03-26T12:37:25.228Z,9.91
2019-03-26T12:39:59.254Z,9.89
2019-03-26T12:42:18.853Z,9.87
2019-03-26T12:44:44.685Z,9.89
2019-03-26T12:47:10.549Z,9.95
2019-03-26T12:49:36.756Z,10.04
2019-03-26T12:52:02.705Z,10.18
2019-03-26T12:54:28.538Z,10.26
2019-03-26T12:56:54.617Z,10.35
2019-03-26T12:59:20.584Z,10.35
2019-03-26T13:01:46.577Z,10.23
2019-03-26T13:04:15.447Z,10.13
2019-03-26T13:06:40.400Z,10.07
2019-03-26T13:09:07.106Z,10.08
2019-03-26T13:11:33.160Z,10.11
2019-03-26T13:13:58.982Z,10.16
2019-03-26T13:16:24.945Z,10.12
2019-03-26T13:18:51.087Z,10.05
2019-03-26T13:21:17.050Z,10.14
2019-03-26T13:23:43.037Z,10.23
2019-03-26T13:26:09.105Z,10.14
2019-03-26T13:28:34.944Z,10.12
2019-03-26T13:31:00.786Z,10.11
2019-03-26T13:33:27.089Z,10.11
2019-03-26T13:35:52.965Z,10.09
2019-03-26T13:38:18.829Z,10.09
2019-03-26T13:40:45.993Z,10.12
2019-03-26T13:43:11.873Z,10.13
2019-03-26T13:45:37.821Z,10.12
2019-03-26T13:48:03.869Z,10.10
2019-03-26T13:50:29.737Z,10.10
2019-03-26T13:52:55.746Z,10.09
2019-03-26T13:55:21.773Z,10.08
2019-03-26T13:57:47.720Z,10.03
2019-03-26T14:00:13.997Z,9.97
2019-03-26T14:02:40.066Z,9.88
2019-03-26T14:05:07.840Z,9.75
2019-03-26T14:07:33.719Z,9.64
2019-03-26T14:09:59.692Z,9.59
2019-03-26T14:12:25.648Z,9.47
2019-03-26T14:14:53.921Z,9.37
2019-03-26T14:17:19.949Z,9.32
2019-03-26T14:19:45.964Z,9.24
2019-03-26T14:22:11.949Z,9.16
2019-03-26T14:24:38.000Z,9.11
2019-03-26T14:27:03.936Z,9.06
2019-03-26T14:29:29.809Z,9.03
2019-03-26T14:31:55.805Z,8.75
2019-03-26T14:34:21.826Z,8.91
2019-03-26T14:36:47.680Z,8.86
2019-03-26T14:39:13.643Z,8.86
2019-03-26T14:41:39.643Z,8.88
2019-03-26T14:44:05.593Z,8.87
2019-03-26T14:46:31.548Z,8.80
2019-03-26T14:48:57.417Z,8.73
2019-03-26T14:51:23.403Z,8.66
2019-03-26T14:53:49.452Z,8.62
2019-03-26T14:56:15.351Z,8.52
2019-03-26T14:58:41.221Z,8.40
2019-03-26T15:01:07.360Z,8.26
2019-03-26T15:03:33.234Z,8.15
2019-03-26T15:05:59.230Z,8.06
2019-03-26T15:08:25.316Z,7.98
2019-03-26T15:10:52.339Z,7.89
2019-03-26T15:13:18.253Z,7.82
2019-03-26T15:15:44.172Z,7.79
2019-03-26T15:18:10.139Z,7.76
2019-03-26T15:20:36.146Z,7.74
2019-03-26T15:23:02.287Z,7.70
2019-03-26T15:25:28.158Z,7.62
2019-03-26T15:27:54.034Z,7.53
2019-03-26T15:30:20.191Z,7.48
2019-03-26T15:32:46.268Z,7.45
2019-03-26T15:35:12.277Z,7.36
2019-03-26T15:37:38.417Z,7.27
2019-03-26T15:40:06.087Z,7.21
2019-03-26T15:42:32.010Z,7.13
2019-03-26T15:44:58.114Z,7.03
2019-03-26T15:47:24.068Z,6.99
2019-03-26T15:49:50.351Z,6.93
2019-03-26T15:52:17.032Z,6.84
2019-03-26T15:54:42.981Z,6.75
2019-03-26T15:57:08.896Z,6.61
2019-03-26T15:59:34.809Z,6.49
2019-03-26T16:02:00.683Z,6.40
2019-03-26T16:04:26.676Z,6.31
2019-03-26T16:06:52.706Z,6.21
2019-03-26T16:09:18.559Z,5.88
2019-03-26T16:11:44.702Z,6.00
2019-03-26T16:14:10.610Z,5.91
2019-03-26T16:16:36.468Z,5.82
2019-03-26T16:19:02.570Z,5.73
2019-03-26T16:21:28.741Z,5.67
2019-03-26T16:23:54.601Z,5.62
2019-03-26T16:26:20.807Z,5.57
2019-03-26T16:28:46.870Z,5.50
2019-03-26T16:31:12.718Z,5.43
2019-03-26T16:33:38.745Z,5.36
2019-03-26T16:36:04.942Z,5.32
2019-03-26T16:38:30.878Z,5.26
2019-03-26T16:40:56.770Z,5.19
2019-03-26T16:43:22.922Z,5.15
2019-03-26T16:45:48.900Z,5.10
2019-03-26T16:48:14.800Z,5.04
2019-03-26T16:50:40.924Z,5.00
2019-03-26T16:53:07.165Z,4.94
2019-03-26T16:55:33.194Z,4.88
2019-03-26T16:58:01.963Z,4.83
2019-03-26T17:00:28.850Z,4.76
2019-03-26T17:02:54.698Z,4.68
2019-03-26T17:05:26.688Z,4.61
2019-03-26T17:07:52.557Z,4.58
2019-03-26T17:10:18.515Z,4.54
2019-03-26T17:12:44.948Z,4.51
2019-03-26T17:15:11.046Z,4.48
2019-03-26T17:17:36.908Z,4.42
2019-03-26T17:20:04.251Z,4.38
2019-03-26T17:22:30.113Z,4.32
2019-03-26T17:24:55.978Z,4.29
2019-03-26T17:27:22.059Z,4.24
2019-03-26T17:29:47.940Z,4.23
2019-03-26T17:32:13.835Z,4.21
2019-03-26T17:34:39.819Z,4.16
2019-03-26T17:37:05.739Z,4.09
2019-03-26T17:39:31.823Z,4.04
2019-03-26T17:41:57.928Z,4.00
2019-03-26T17:44:23.782Z,3.96
2019-03-26T17:46:49.683Z,3.88
2019-03-26T17:49:15.579Z,3.79
2019-03-26T17:51:41.457Z,3.69
2019-03-26T17:54:07.325Z,3.61
2019-03-26T17:56:33.334Z,3.56
2019-03-26T17:58:59.232Z,3.55
2019-03-26T18:01:25.207Z,3.55
2019-03-26T18:03:51.503Z,3.54
2019-03-26T18:06:17.457Z,3.52
2019-03-26T18:08:43.340Z,3.50
2019-03-26T18:11:09.473Z,3.47
2019-03-26T18:13:35.411Z,3.43
2019-03-26T18:16:01.403Z,3.38
2019-03-26T18:18:27.337Z,3.35
2019-03-26T18:20:53.350Z,3.30
2019-03-26T18:23:19.180Z,3.28
2019-03-26T18:25:45.114Z,3.23
2019-03-26T18:28:10.975Z,3.20
2019-03-26T18:30:36.963Z,3.15
2019-03-26T18:33:03.119Z,3.12
2019-03-26T18:35:30.196Z,3.10
2019-03-26T18:37:56.075Z,3.07
2019-03-26T18:40:25.003Z,3.04
2019-03-26T18:42:50.933Z,3.01
2019-03-26T18:45:16.775Z,2.99
2019-03-26T18:47:43.277Z,2.97
2019-03-26T18:50:09.969Z,2.94
2019-03-26T18:52:35.818Z,2.90
2019-03-26T18:55:02.385Z,2.87
2019-03-26T18:57:28.243Z,2.85
2019-03-26T18:59:54.096Z,2.81
2019-03-26T19:02:20.066Z,2.79
2019-03-26T19:04:46.048Z,2.75
2019-03-26T19:07:12.056Z,2.72
2019-03-26T19:09:38.079Z,2.66
2019-03-26T19:12:03.958Z,2.60
2019-03-26T19:14:29.860Z,2.59
2019-03-26T19:16:55.788Z,2.57
2019-03-26T19:19:21.666Z,2.53
2019-03-26T19:21:47.572Z,2.50
2019-03-26T19:24:13.599Z,2.47
2019-03-26T19:26:39.599Z,2.44
2019-03-26T19:29:05.559Z,2.44
2019-03-26T19:31:31.547Z,2.41
2019-03-26T19:33:57.422Z,2.40
2019-03-26T19:36:23.281Z,2.38
2019-03-26T19:38:49.370Z,2.38
2019-03-26T19:41:15.291Z,2.37
2019-03-26T19:43:41.368Z,2.37
2019-03-26T19:46:07.516Z,2.35
2019-03-26T19:48:33.690Z,2.32
2019-03-26T19:50:59.533Z,2.27
2019-03-26T19:53:25.588Z,2.26
2019-03-26T19:55:51.444Z,2.23
2019-03-26T19:58:17.430Z,2.21
2019-03-26T20:00:43.573Z,2.19
2019-03-26T20:03:09.434Z,2.17
2019-03-26T20:05:35.689Z,2.16
2019-03-26T20:08:01.926Z,2.19
2019-03-26T20:10:27.871Z,2.19
2019-03-26T20:12:53.725Z,2.18
2019-03-26T20:15:20.096Z,2.18
2019-03-26T20:17:45.952Z,2.15
2019-03-26T20:20:12.398Z,2.14
2019-03-26T20:22:38.521Z,2.13
2019-03-26T20:25:04.685Z,2.11
2019-03-26T20:27:30.652Z,2.09
2019-03-26T20:29:56.712Z,2.06
2019-03-26T20:32:22.587Z,2.07
2019-03-26T20:34:48.564Z,2.06
2019-03-26T20:37:14.659Z,2.06
2019-03-26T20:39:40.496Z,2.02
2019-03-26T20:42:08.285Z,2.02
2019-03-26T20:44:34.148Z,2.02
2019-03-26T20:47:00.241Z,2.00
2019-03-26T20:49:26.182Z,1.98
2019-03-26T20:51:52.271Z,1.96
2019-03-26T20:54:19.025Z,1.93
2019-03-26T20:56:45.053Z,1.91
2019-03-26T20:59:11.199Z,1.89
2019-03-26T21:01:37.175Z,1.89
2019-03-26T21:04:03.155Z,1.90
2019-03-26T21:06:29.203Z,1.88
2019-03-26T21:08:55.044Z,1.87
2019-03-26T21:11:20.928Z,1.86
2019-03-26T21:13:50.968Z,1.84
2019-03-26T21:16:14.680Z,1.82
2019-03-26T21:18:40.544Z,1.80
2019-03-26T21:21:06.564Z,1.80
2019-03-26T21:23:32.711Z,1.79
2019-03-26T21:25:58.691Z,1.80
2019-03-26T21:28:24.840Z,1.80
2019-03-26T21:30:50.811Z,1.80
2019-03-26T21:33:16.761Z,1.79
2019-03-26T21:35:42.900Z,1.78
2019-03-26T21:38:08.753Z,1.77
2019-03-26T21:40:35.774Z,1.77
2019-03-26T21:43:01.936Z,1.51
2019-03-26T21:45:31.516Z,1.77
2019-03-26T21:47:57.508Z,1.76
2019-03-26T21:50:23.540Z,1.76
2019-03-26T21:52:49.520Z,1.75
2019-03-26T21:55:15.404Z,1.76
2019-03-26T21:57:41.478Z,1.76
2019-03-26T22:00:07.886Z,1.78
2019-03-26T22:02:33.761Z,1.77
2019-03-26T22:04:59.777Z,1.78
2019-03-26T22:07:25.778Z,1.77
2019-03-26T22:09:51.823Z,1.76
2019-03-26T22:12:20.754Z,1.77
2019-03-26T22:14:45.555Z,1.78
2019-03-26T22:17:11.405Z,1.79
2019-03-26T22:19:37.552Z,1.79
2019-03-26T22:22:03.405Z,1.75
2019-03-26T22:24:29.406Z,1.72
2019-03-26T22:26:55.551Z,1.73
2019-03-26T22:29:21.511Z,1.72
2019-03-26T22:31:47.341Z,1.75
2019-03-26T22:34:13.751Z,1.73
2019-03-26T22:36:39.613Z,1.73
2019-03-26T22:39:05.699Z,1.75
2019-03-26T22:41:31.861Z,1.78
2019-03-26T22:43:57.973Z,1.78
2019-03-26T22:46:23.992Z,1.76
2019-03-26T22:48:50.261Z,1.76
2019-03-26T22:51:16.136Z,1.76
2019-03-26T22:53:42.081Z,1.75
2019-03-26T22:56:08.107Z,1.75
2019-03-26T22:58:34.022Z,1.73
2019-03-26T23:01:00.102Z,1.73
2019-03-26T23:03:26.412Z,1.72
2019-03-26T23:05:52.541Z,1.72
2019-03-26T23:08:18.402Z,1.71
2019-03-26T23:10:44.437Z,1.72
2019-03-26T23:13:10.431Z,1.72
2019-03-26T23:15:36.280Z,1.72
2019-03-26T23:18:02.541Z,1.72
2019-03-26T23:20:28.543Z,1.71
2019-03-26T23:22:55.301Z,1.72
2019-03-26T23:25:21.358Z,1.71
2019-03-26T23:27:47.215Z,1.72
2019-03-26T23:30:13.442Z,1.73
2019-03-26T23:32:39.457Z,1.76
2019-03-26T23:35:05.492Z,1.79
2019-03-26T23:37:31.370Z,1.80
2019-03-26T23:39:57.306Z,1.80
2019-03-26T23:42:23.186Z,1.80
2019-03-26T23:44:58.326Z,1.80
2019-03-26T23:47:17.449Z,1.82
2019-03-26T23:49:43.365Z,1.82
2019-03-26T23:52:09.258Z,1.83
2019-03-26T23:54:35.220Z,1.85
2019-03-26T23:57:01.190Z,1.87
2019-03-26T23:59:27.156Z,1.85
